Time;durP1;ratioP1;P1;durP2;ratioP2;P2;SDS_P1;SDS_P2;PMS_P1;PMS_P2;Temp;Humidity;BMP_temperature;BMP_pressure;BME280_temperature;BME280_humidity;BME280_pressure;Samples;Min_cycle;Max_cycle;Signal;HPM_P1;HPM_P2
2022/11/24 00:02:04;;;;;;;12.57;3.40;;;;;;;7.81;96.31;100232.59;5134156;28;20047;-65
2022/11/24 00:04:30;;;;;;;21.90;4.70;;;;;;;7.79;96.15;100234.31;5133966;28;20377;-65
2022/11/24 00:06:55;;;;;;;18.25;3.42;;;;;;;7.81;95.60;100229.97;5133842;28;20088;-66
2022/11/24 00:09:20;;;;;;;14.27;3.40;;;;;;;7.81;96.36;100242.25;5133910;27;20016;-65
2022/11/24 00:11:46;;;;;;;19.60;3.97;;;;;;;7.79;95.68;100223.78;5136623;27;20027;-65
2022/11/24 00:14:11;;;;;;;21.35;3.78;;;;;;;7.75;96.13;100233.41;5137787;27;20062;-65
2022/11/24 00:16:37;;;;;;;14.63;3.70;;;;;;;7.76;95.94;100236.94;5138011;27;20019;-65
2022/11/24 00:19:07;;;;;;;18.80;3.15;;;;;;;7.74;95.79;100242.16;5137977;27;20015;-65
2022/11/24 00:21:33;;;;;;;16.52;3.45;;;;;;;7.74;95.67;100249.16;5137852;27;20118;-65
2022/11/24 00:23:59;;;;;;;18.90;4.00;;;;;;;7.74;95.95;100247.41;5137952;27;20027;-65
2022/11/24 00:26:27;;;;;;;24.92;3.53;;;;;;;7.74;95.95;100262.31;5137984;27;20024;-64
2022/11/24 00:28:55;;;;;;;20.23;3.80;;;;;;;7.72;95.33;100257.03;5137625;27;20058;-65
2022/11/24 00:31:24;;;;;;;18.80;3.90;;;;;;;7.71;95.92;100257.91;5137708;27;20019;-65
2022/11/24 00:33:51;;;;;;;22.27;3.90;;;;;;;7.71;95.49;100259.66;5137693;27;20034;-65
2022/11/24 00:36:20;;;;;;;16.85;3.30;;;;;;;7.69;96.38;100259.63;5137497;27;20070;-65
2022/11/24 00:38:46;;;;;;;14.63;3.35;;;;;;;7.71;95.53;100264.94;5137707;27;20072;-65
2022/11/24 00:41:12;;;;;;;18.27;3.20;;;;;;;7.70;96.13;100260.50;5137449;27;20407;-65
2022/11/24 00:43:38;;;;;;;13.43;3.30;;;;;;;7.69;95.65;100251.72;5137265;27;20027;-65
2022/11/24 00:46:03;;;;;;;16.98;3.53;;;;;;;7.66;95.25;100259.56;5137652;27;20376;-65
2022/11/24 00:48:29;;;;;;;16.33;3.35;;;;;;;7.67;95.45;100258.72;5136856;27;20055;-65
2022/11/24 00:50:59;;;;;;;18.60;3.33;;;;;;;7.66;95.16;100264.84;5137437;27;20039;-64
2022/11/24 00:53:25;;;;;;;22.23;3.83;;;;;;;7.64;95.85;100261.31;5137244;27;20476;-65
2022/11/24 00:55:51;;;;;;;16.35;3.30;;;;;;;7.66;95.45;100267.47;5137162;27;20400;-65
2022/11/24 00:58:17;;;;;;;11.98;3.03;;;;;;;7.65;94.97;100272.72;5136166;27;20019;-65
2022/11/24 01:00:42;;;;;;;16.80;3.22;;;;;;;7.63;95.75;100269.19;5137130;27;20031;-65
2022/11/24 01:03:07;;;;;;;13.15;3.10;;;;;;;7.66;95.09;100271.84;5137087;27;20062;-69
2022/11/24 01:05:36;;;;;;;15.63;3.30;;;;;;;7.64;95.52;100278.84;5137112;27;20023;-65
2022/11/24 01:08:02;;;;;;;18.92;3.45;;;;;;;7.66;95.50;100277.09;5136948;27;20028;-65
2022/11/24 01:10:27;;;;;;;16.95;3.20;;;;;;;7.64;95.35;100281.47;5136802;27;20554;-65
2022/11/24 01:12:53;;;;;;;19.05;3.30;;;;;;;7.61;95.15;100290.19;5136580;27;20023;-65
2022/11/24 01:15:18;;;;;;;19.20;3.40;;;;;;;7.66;95.29;100295.50;5136757;27;20025;-64
2022/11/24 01:17:43;;;;;;;15.40;3.47;;;;;;;7.65;95.02;100288.50;5136819;27;20032;-65
2022/11/24 01:20:09;;;;;;;14.02;3.10;;;;;;;7.65;95.18;100288.50;5136773;27;20114;-65
2022/11/24 01:22:35;;;;;;;15.63;3.30;;;;;;;7.64;94.72;100290.25;5135646;27;20475;-65
2022/11/24 01:25:00;;;;;;;14.82;3.20;;;;;;;7.66;94.89;100299.00;5136588;27;20087;-65
2022/11/24 01:27:25;;;;;;;20.30;3.28;;;;;;;7.63;94.27;100295.50;5136754;27;20051;-65
2022/11/24 01:29:51;;;;;;;20.20;3.35;;;;;;;7.63;95.13;100291.09;5136400;27;20031;-65
2022/11/24 01:32:16;;;;;;;15.40;3.50;;;;;;;7.62;95.52;100293.69;5136685;27;20027;-65
2022/11/24 01:34:42;;;;;;;19.50;3.22;;;;;;;7.58;95.20;100302.41;5136386;27;20110;-65
2022/11/24 01:37:07;;;;;;;16.20;3.92;;;;;;;7.55;95.58;100300.63;5136426;27;20022;-65
2022/11/24 01:39:32;;;;;;;16.77;3.22;;;;;;;7.53;95.33;100303.22;5136264;27;20052;-64
2022/11/24 01:42:02;;;;;;;16.63;3.10;;;;;;;7.53;95.67;100299.72;5136216;27;20456;-65
2022/11/24 01:44:29;;;;;;;15.52;3.30;;;;;;;7.51;95.58;100309.34;5136017;27;20027;-65
2022/11/24 01:47:20;;;;;;;18.30;3.50;;;;;;;7.52;95.32;100311.09;5136152;27;20098;-65
2022/11/24 01:49:50;;;;;;;15.27;3.13;;;;;;;7.51;95.74;100322.47;5135893;27;20051;-65
2022/11/24 01:52:33;;;;;;;24.52;3.75;;;;;;;7.46;95.07;100326.78;5136084;27;20091;-65
2022/11/24 01:55:05;;;;;;;13.68;2.88;;;;;;;7.47;95.92;100324.19;5136093;27;20031;-65
2022/11/24 01:57:36;;;;;;;14.60;3.15;;;;;;;7.43;95.59;100325.00;5135980;27;20027;-64
2022/11/24 02:00:06;;;;;;;18.20;3.35;;;;;;;7.43;95.46;100324.09;5135969;27;20051;-64
2022/11/24 02:02:32;;;;;;;20.00;3.58;;;;;;;7.41;95.00;100325.81;5135847;27;20540;-65
2022/11/24 02:05:02;;;;;;;17.27;3.42;;;;;;;7.41;96.07;100326.72;5135880;27;20058;-65
2022/11/24 02:07:29;;;;;;;18.50;3.25;;;;;;;7.41;95.36;100334.63;5134499;27;20060;-64
2022/11/24 02:09:58;;;;;;;19.25;3.95;;;;;;;7.40;95.54;100330.19;5135639;27;20027;-64
2022/11/24 02:12:25;;;;;;;16.90;3.38;;;;;;;7.42;95.63;100335.50;5135666;27;20041;-64
2022/11/24 02:14:52;;;;;;;17.30;3.90;;;;;;;7.40;95.64;100340.72;5135420;27;20388;-64
2022/11/24 02:17:18;;;;;;;17.02;3.78;;;;;;;7.40;95.84;100338.06;5135538;27;20030;-65
2022/11/24 02:20:03;;;;;;;18.90;3.33;;;;;;;7.45;95.85;100338.13;5135538;27;20373;-65
2022/11/24 02:23:09;;;;;;;15.20;3.38;;;;;;;7.49;95.59;100345.22;5135713;27;20035;-64
2022/11/24 02:25:42;;;;;;;24.60;3.72;;;;;;;7.44;95.81;100342.53;5135457;27;20375;-65
2022/11/24 02:28:13;;;;;;;12.82;3.45;;;;;;;7.48;95.84;100346.09;5134117;27;20023;-64
2022/11/24 02:30:39;;;;;;;24.83;3.95;;;;;;;7.49;95.80;100342.59;5135212;27;20019;-65
2022/11/24 02:33:04;;;;;;;18.98;3.42;;;;;;;7.50;95.09;100349.63;5135085;27;20035;-64
2022/11/24 02:35:30;;;;;;;19.88;3.42;;;;;;;7.47;95.89;100344.31;5135179;27;20019;-64
2022/11/24 02:37:56;;;;;;;22.13;3.90;;;;;;;7.45;95.28;100336.44;5135192;27;20050;-65
2022/11/24 02:40:24;;;;;;;15.60;3.13;;;;;;;7.47;95.88;100349.59;5135102;27;20329;-64
2022/11/24 02:42:53;;;;;;;20.00;3.58;;;;;;;7.46;95.82;100350.44;5134993;27;20488;-65
2022/11/24 02:45:20;;;;;;;13.55;3.47;;;;;;;7.49;95.60;100351.38;5135012;27;20019;-65
2022/11/24 02:47:45;;;;;;;19.13;3.88;;;;;;;7.52;95.22;100347.91;5134712;27;20055;-64
2022/11/24 02:50:11;;;;;;;22.90;3.70;;;;;;;7.52;95.61;100346.16;5135097;27;20055;-64
2022/11/24 02:52:36;;;;;;;15.57;3.50;;;;;;;7.56;95.99;100351.47;5133562;27;20035;-65
2022/11/24 02:55:02;;;;;;;28.77;3.95;;;;;;;7.58;95.87;100362.88;5134813;27;20110;-64
2022/11/24 02:57:28;;;;;;;18.33;3.47;;;;;;;7.59;95.70;100359.41;5134806;27;20027;-64
2022/11/24 02:59:53;;;;;;;22.80;4.03;;;;;;;7.66;95.65;100359.50;5133497;27;20030;-64
2022/11/24 03:02:19;;;;;;;21.25;3.75;;;;;;;7.67;95.43;100360.41;5134640;27;20048;-64
2022/11/24 03:04:44;;;;;;;23.02;4.00;;;;;;;7.66;95.63;100355.97;5134738;27;20027;-65
2022/11/24 03:07:09;;;;;;;19.00;3.40;;;;;;;7.73;96.00;100364.00;5134601;27;20393;-64
2022/11/24 03:09:35;;;;;;;20.17;3.83;;;;;;;7.73;95.98;100366.63;5134448;27;20062;-64
2022/11/24 03:12:00;;;;;;;22.20;3.83;;;;;;;7.77;96.09;100373.69;5134544;27;20023;-64
2022/11/24 03:14:25;;;;;;;21.13;3.80;;;;;;;7.73;95.58;100357.84;5134345;27;20019;-64
2022/11/24 03:16:51;;;;;;;27.05;4.15;;;;;;;7.82;95.59;100370.25;5134459;27;20471;-64
2022/11/24 03:19:16;;;;;;;20.70;4.50;;;;;;;7.82;96.14;100371.13;5134547;27;20024;-64
2022/11/24 03:21:41;;;;;;;20.80;3.60;;;;;;;7.81;95.57;100373.75;5134389;27;20114;-64
2022/11/24 03:24:07;;;;;;;18.63;3.88;;;;;;;7.85;95.97;100378.19;5134423;27;20023;-64
2022/11/24 03:26:34;;;;;;;19.13;3.75;;;;;;;7.86;95.71;100377.31;5134498;27;20035;-64
2022/11/24 03:28:59;;;;;;;17.67;3.60;;;;;;;7.87;95.34;100379.97;5134193;27;20026;-65
2022/11/24 03:31:25;;;;;;;23.73;4.00;;;;;;;7.93;96.11;100381.81;5134530;27;20024;-65
2022/11/24 03:33:50;;;;;;;21.60;3.33;;;;;;;7.93;95.43;100382.69;5134233;27;20439;-64
2022/11/24 03:36:16;;;;;;;23.98;4.25;;;;;;;7.94;95.83;100388.84;5134145;27;20027;-65
2022/11/24 03:38:41;;;;;;;18.35;3.67;;;;;;;7.96;95.26;100390.63;5134211;27;20015;-64
2022/11/24 03:41:07;;;;;;;22.27;4.00;;;;;;;7.97;95.11;100388.91;5134143;27;20050;-64
2022/11/24 03:43:32;;;;;;;20.98;4.03;;;;;;;7.97;95.16;100388.91;5133896;27;20035;-64
2022/11/24 03:45:58;;;;;;;19.83;4.22;;;;;;;8.00;95.50;100388.91;5132251;27;20023;-64
2022/11/24 03:48:23;;;;;;;22.13;3.90;;;;;;;8.01;94.90;100385.44;5133980;27;20168;-64
2022/11/24 03:50:59;;;;;;;23.00;4.13;;;;;;;8.04;94.60;100394.22;5133952;28;20031;-64
2022/11/24 03:53:26;;;;;;;21.35;4.22;;;;;;;8.07;94.50;100390.78;5134046;27;20027;-65
2022/11/24 03:55:51;;;;;;;20.17;3.95;;;;;;;8.08;94.68;100397.78;5134061;27;20015;-64
2022/11/24 03:58:17;;;;;;;22.92;4.28;;;;;;;8.09;94.69;100391.66;5134147;27;20183;-64
2022/11/24 04:00:43;;;;;;;24.52;4.45;;;;;;;8.10;94.77;100401.34;5133880;27;20035;-65
2022/11/24 04:03:08;;;;;;;19.90;3.78;;;;;;;8.11;94.82;100400.47;5132776;28;20026;-65
2022/11/24 04:05:35;;;;;;;21.27;4.40;;;;;;;8.15;94.71;100401.41;5132715;28;20068;-65
2022/11/24 04:08:02;;;;;;;16.42;3.78;;;;;;;8.10;94.60;100385.56;5133952;27;20080;-64
2022/11/24 04:10:28;;;;;;;26.23;4.32;;;;;;;8.13;94.23;100389.97;5134052;27;20031;-65
2022/11/24 04:12:53;;;;;;;23.27;3.78;;;;;;;8.11;94.96;100400.47;5133966;27;20026;-64
2022/11/24 04:15:19;;;;;;;27.85;4.18;;;;;;;8.13;94.04;100405.75;5133697;27;20039;-64
2022/11/24 04:17:46;;;;;;;26.88;4.20;;;;;;;8.13;94.20;100411.00;5134165;27;20084;-64
2022/11/24 04:20:12;;;;;;;25.38;4.90;;;;;;;8.13;94.71;100416.28;5133841;27;20081;-64
2022/11/24 04:22:37;;;;;;;20.15;3.97;;;;;;;8.08;94.32;100410.97;5133783;27;20050;-64
2022/11/24 04:25:04;;;;;;;21.67;4.00;;;;;;;8.16;94.72;100429.50;5133865;28;20054;-64
2022/11/24 04:27:32;;;;;;;19.60;4.00;;;;;;;8.16;94.69;100435.63;5133706;27;20058;-65
2022/11/24 04:29:57;;;;;;;23.55;3.80;;;;;;;8.18;95.11;100430.38;5133740;27;20106;-64
2022/11/24 04:32:22;;;;;;;16.90;3.97;;;;;;;8.16;95.11;100438.25;5133943;28;20122;-66
2022/11/24 04:34:48;;;;;;;22.60;4.63;;;;;;;8.16;95.67;100447.91;5133905;28;20123;-66
2022/11/24 04:37:13;;;;;;;16.80;3.40;;;;;;;8.13;96.22;100461.00;5133631;28;20529;-67
2022/11/24 04:39:38;;;;;;;16.48;3.55;;;;;;;8.11;96.84;100458.38;5133616;28;20059;-67
2022/11/24 04:42:04;;;;;;;15.43;3.35;;;;;;;8.10;96.53;100461.88;5133677;27;20072;-67
2022/11/24 04:44:30;;;;;;;19.40;3.80;;;;;;;8.05;96.79;100455.66;5133563;27;20026;-67
2022/11/24 04:46:55;;;;;;;15.63;3.60;;;;;;;8.01;97.40;100454.72;5133640;28;20408;-67
2022/11/24 04:49:21;;;;;;;15.35;3.42;;;;;;;8.00;97.58;100458.19;5132057;28;20043;-67
2022/11/24 04:51:46;;;;;;;17.08;3.47;;;;;;;7.99;97.66;100458.19;5133465;27;20495;-67
2022/11/24 04:54:13;;;;;;;20.67;3.85;;;;;;;7.96;97.40;100458.13;5133501;28;20031;-67
2022/11/24 04:56:42;;;;;;;12.70;2.90;;;;;;;7.92;97.62;100461.56;5132897;27;20038;-67
2022/11/24 04:59:14;;;;;;;16.52;3.00;;;;;;;7.92;98.23;100461.56;5137106;27;20027;-67
2022/11/24 05:01:41;;;;;;;14.30;2.70;;;;;;;7.89;97.33;100458.94;5137140;27;20350;-67
2022/11/24 05:04:09;;;;;;;11.93;2.55;;;;;;;7.87;97.36;100464.13;5137123;27;20097;-67
2022/11/24 05:06:35;;;;;;;12.77;2.80;;;;;;;7.85;97.33;100459.75;5137056;27;20019;-68
2022/11/24 05:09:00;;;;;;;10.18;2.50;;;;;;;7.81;96.96;100464.06;5136944;27;20034;-66
2022/11/24 05:11:25;;;;;;;8.15;2.35;;;;;;;7.78;97.62;100461.38;5136862;27;20056;-66
2022/11/24 05:13:52;;;;;;;8.93;2.42;;;;;;;7.77;97.02;100460.50;5136983;27;20030;-67
2022/11/24 05:16:17;;;;;;;7.25;2.15;;;;;;;7.75;97.30;100470.13;5136823;27;20438;-66
2022/11/24 05:18:43;;;;;;;8.43;2.03;;;;;;;7.76;96.60;100476.25;5136778;27;20035;-66
2022/11/24 05:21:08;;;;;;;6.95;1.80;;;;;;;7.73;96.98;100474.44;5136758;27;20024;-66
2022/11/24 05:23:34;;;;;;;4.70;1.70;;;;;;;7.74;96.90;100491.09;5136643;27;20051;-66
2022/11/24 05:26:01;;;;;;;7.97;1.90;;;;;;;7.72;96.49;100485.84;5136649;27;20428;-66
2022/11/24 05:28:27;;;;;;;11.07;2.13;;;;;;;7.71;96.95;100484.06;5136501;27;20508;-67
2022/11/24 05:30:52;;;;;;;8.18;2.00;;;;;;;7.72;96.37;100493.72;5136509;27;20520;-67
2022/11/24 05:33:21;;;;;;;6.80;2.03;;;;;;;7.73;97.13;100497.25;5136704;27;20027;-66
2022/11/24 05:35:48;;;;;;;7.63;2.35;;;;;;;7.74;97.09;100491.09;5136384;27;20109;-66
2022/11/24 05:38:17;;;;;;;5.90;2.00;;;;;;;7.72;97.35;100488.47;5136294;27;20060;-67
2022/11/24 05:40:43;;;;;;;9.68;2.83;;;;;;;7.70;97.63;100511.22;5136366;27;20095;-66
2022/11/24 05:43:13;;;;;;;9.98;2.40;;;;;;;7.70;97.50;100503.31;5134978;27;20023;-66
2022/11/24 05:45:39;;;;;;;10.18;2.45;;;;;;;7.67;97.11;100505.03;5136218;27;20366;-66
2022/11/24 05:48:06;;;;;;;8.77;2.47;;;;;;;7.68;97.55;100507.69;5136096;27;20065;-66
2022/11/24 05:50:33;;;;;;;8.90;2.45;;;;;;;7.64;98.00;100500.59;5136326;27;20069;-66
2022/11/24 05:53:10;;;;;;;12.80;2.80;;;;;;;7.70;98.32;100507.69;5136065;27;20031;-66
2022/11/24 05:55:36;;;;;;;13.75;2.60;;;;;;;7.70;98.69;100515.59;5135994;27;20024;-66
2022/11/24 05:58:05;;;;;;;11.13;2.80;;;;;;;7.71;98.48;100523.53;5135988;27;20027;-66
2022/11/24 06:00:31;;;;;;;12.52;3.15;;;;;;;7.71;99.36;100520.91;5135929;27;20055;-65
2022/11/24 06:02:57;;;;;;;10.63;2.72;;;;;;;7.72;99.25;100525.28;5135774;27;20382;-65
2022/11/24 06:05:23;;;;;;;17.48;2.90;;;;;;;7.74;98.88;100531.44;5134548;27;20035;-65
2022/11/24 06:07:51;;;;;;;15.85;3.00;;;;;;;7.78;99.43;100540.28;5134389;27;20495;-65
2022/11/24 06:10:17;;;;;;;13.02;3.47;;;;;;;7.80;98.53;100551.72;5135908;27;20034;-65
2022/11/24 06:12:42;;;;;;;15.80;3.50;;;;;;;7.84;98.62;100556.19;5135679;27;20038;-65
2022/11/24 06:15:08;;;;;;;13.73;2.78;;;;;;;7.87;98.68;100558.84;5135490;27;20023;-68
2022/11/24 06:17:34;;;;;;;13.93;2.90;;;;;;;7.91;97.98;100558.03;5135695;27;20019;-65
2022/11/24 06:19:59;;;;;;;12.50;3.28;;;;;;;7.93;97.25;100555.44;5135576;27;20059;-65
2022/11/24 06:22:25;;;;;;;17.35;3.25;;;;;;;7.94;97.56;100567.75;5135709;27;20026;-65
2022/11/24 06:24:50;;;;;;;15.05;2.90;;;;;;;7.94;96.66;100560.72;5135501;27;20034;-65
2022/11/24 06:27:16;;;;;;;15.70;3.00;;;;;;;7.98;96.62;100572.19;5135372;27;20388;-65
2022/11/24 06:29:41;;;;;;;16.65;3.30;;;;;;;7.97;95.71;100584.47;5135383;27;20027;-66
2022/11/24 06:32:08;;;;;;;11.93;2.67;;;;;;;8.01;95.47;100588.03;5135264;27;20020;-64
2022/11/24 06:34:33;;;;;;;8.93;2.40;;;;;;;8.00;95.38;100596.78;5135268;27;20030;-65
2022/11/24 06:36:59;;;;;;;10.95;2.83;;;;;;;7.98;95.16;100598.50;5135189;27;20054;-65
2022/11/24 06:39:24;;;;;;;11.52;2.67;;;;;;;7.99;94.85;100602.91;5135142;27;20031;-65
2022/11/24 06:41:50;;;;;;;10.45;2.35;;;;;;;7.98;95.09;100609.03;5135110;27;20019;-65
2022/11/24 06:44:15;;;;;;;19.05;3.65;;;;;;;7.99;95.13;100610.78;5134962;27;20055;-65
2022/11/24 06:46:41;;;;;;;5.18;2.35;;;;;;;7.98;94.26;100622.19;5134833;27;20034;-66
2022/11/24 06:49:06;;;;;;;6.43;2.20;;;;;;;7.98;94.10;100635.34;5134632;27;20405;-65
2022/11/24 06:51:32;;;;;;;10.75;2.50;;;;;;;7.95;94.91;100641.41;5134911;27;20027;-65
2022/11/24 06:53:57;;;;;;;7.65;2.20;;;;;;;7.97;93.85;100647.59;5134915;27;20034;-65
2022/11/24 06:56:22;;;;;;;9.48;2.28;;;;;;;7.94;94.37;100642.28;5134731;27;20031;-65
2022/11/24 06:58:50;;;;;;;11.07;2.33;;;;;;;7.97;93.57;100647.59;5135076;27;20034;-65
2022/11/24 07:01:24;;;;;;;7.78;2.10;;;;;;;7.93;93.63;100661.56;5134820;27;20015;-65
2022/11/24 07:03:50;;;;;;;11.20;2.40;;;;;;;7.92;94.02;100665.06;5133749;27;20403;-65
2022/11/24 07:06:17;;;;;;;10.50;2.17;;;;;;;7.91;93.73;100667.66;5134899;27;20032;-65
2022/11/24 07:08:43;;;;;;;7.55;2.15;;;;;;;7.84;93.56;100664.03;5134550;27;20041;-65
2022/11/24 07:11:14;;;;;;;9.07;2.13;;;;;;;7.82;94.33;100676.25;5134715;27;20019;-64
2022/11/24 07:13:43;;;;;;;6.95;1.88;;;;;;;7.78;93.79;100684.94;5134742;27;20059;-64
2022/11/24 07:16:18;;;;;;;9.73;2.15;;;;;;;7.74;93.61;100688.38;5134770;27;20034;-65
2022/11/24 07:18:45;;;;;;;7.72;2.30;;;;;;;7.74;93.60;100698.88;5134271;27;20028;-65
2022/11/24 07:21:10;;;;;;;6.95;2.30;;;;;;;7.71;94.00;100701.47;5134118;27;20396;-64
2022/11/24 07:23:36;;;;;;;9.40;2.13;;;;;;;7.67;94.04;100708.41;5134411;27;20023;-65
2022/11/24 07:26:06;;;;;;;9.10;2.13;;;;;;;7.66;94.34;100714.50;5134351;27;20027;-65
2022/11/24 07:28:32;;;;;;;8.32;2.17;;;;;;;7.63;94.09;100722.34;5134313;27;20497;-64
2022/11/24 07:30:57;;;;;;;8.10;2.33;;;;;;;7.62;94.56;100725.81;5134475;27;20114;-65
2022/11/24 07:33:24;;;;;;;5.45;2.00;;;;;;;7.60;94.69;100724.03;5134248;27;20052;-65
2022/11/24 07:35:51;;;;;;;7.78;2.10;;;;;;;7.61;95.12;100731.94;5134196;27;20032;-65
2022/11/24 07:38:17;;;;;;;6.78;2.15;;;;;;;7.58;95.26;100728.34;5132985;27;20114;-66
2022/11/24 07:40:42;;;;;;;9.02;1.98;;;;;;;7.54;95.86;100719.53;5134192;27;20114;-66
2022/11/24 07:43:08;;;;;;;7.78;2.20;;;;;;;7.56;96.54;100733.59;5133899;28;20027;-67
2022/11/24 07:45:33;;;;;;;12.70;2.10;;;;;;;7.57;96.30;100740.63;5132805;28;20064;-66
2022/11/24 07:47:58;;;;;;;7.45;2.28;;;;;;;7.56;96.02;100740.59;5134018;27;20031;-66
2022/11/24 07:50:24;;;;;;;10.00;3.17;;;;;;;7.55;96.53;100751.97;5132539;28;20039;-66
2022/11/24 07:52:49;;;;;;;6.00;2.08;;;;;;;7.54;96.04;100751.09;5136392;27;20022;-65
2022/11/24 07:55:15;;;;;;;10.05;2.05;;;;;;;7.59;95.87;100759.06;5133991;27;20540;-65
2022/11/24 07:57:40;;;;;;;9.65;2.42;;;;;;;7.66;95.88;100753.06;5133825;27;20094;-67
2022/11/24 08:00:06;;;;;;;6.95;2.03;;;;;;;7.75;95.58;100763.78;5133500;28;20053;-66
2022/11/24 08:02:32;;;;;;;10.68;2.35;;;;;;;7.89;95.51;100777.25;5133901;27;20026;-65
2022/11/24 08:04:58;;;;;;;8.60;2.25;;;;;;;8.02;94.26;100771.38;5133878;27;20024;-66
2022/11/24 08:07:23;;;;;;;8.88;2.55;;;;;;;8.09;94.14;100767.97;5134019;27;20031;-66
2022/11/24 08:09:51;;;;;;;9.60;2.35;;;;;;;8.24;92.89;100780.56;5133613;27;20019;-73
2022/11/24 08:12:21;;;;;;;10.02;2.35;;;;;;;8.37;92.54;100782.59;5134083;27;20111;-66
2022/11/24 08:14:50;;;;;;;11.75;2.28;;;;;;;8.51;91.38;100782.84;5133408;27;20034;-66
2022/11/24 08:17:16;;;;;;;9.95;2.15;;;;;;;8.61;91.05;100794.41;5133960;27;20027;-66
2022/11/24 08:19:41;;;;;;;9.20;2.08;;;;;;;8.68;89.97;100793.69;5133777;27;20600;-65
2022/11/24 08:22:07;;;;;;;9.88;2.20;;;;;;;8.80;90.40;100798.28;5133724;28;20102;-66
2022/11/24 08:24:32;;;;;;;8.05;2.10;;;;;;;8.93;89.62;100802.91;5134032;27;20075;-66
2022/11/24 08:26:58;;;;;;;10.02;2.30;;;;;;;9.05;89.70;100808.38;5133800;27;20029;-65
2022/11/24 08:29:28;;;;;;;10.82;2.78;;;;;;;9.18;88.31;100807.69;5133914;27;20129;-66
2022/11/24 08:31:56;;;;;;;8.50;2.30;;;;;;;9.26;86.78;100819.25;5136473;27;20027;-66
2022/11/24 08:34:22;;;;;;;6.80;2.08;;;;;;;9.32;86.61;100817.56;5137502;27;20080;-65
2022/11/24 08:36:47;;;;;;;9.85;2.47;;;;;;;9.39;85.50;100814.19;5137528;27;20023;-65
2022/11/24 08:39:12;;;;;;;10.32;2.50;;;;;;;9.48;85.89;100827.50;5137571;27;20072;-65
2022/11/24 08:41:38;;;;;;;12.85;2.45;;;;;;;9.54;85.26;100820.53;5137485;27;20032;-65
2022/11/24 08:44:03;;;;;;;11.55;2.15;;;;;;;9.71;85.17;100827.81;5137280;27;20521;-65
2022/11/24 08:46:28;;;;;;;8.98;2.60;;;;;;;9.86;83.79;100832.44;5137598;27;20423;-65
2022/11/24 08:48:54;;;;;;;9.65;2.25;;;;;;;9.88;82.68;100844.75;5136916;27;20055;-66
2022/11/24 08:51:23;;;;;;;9.82;2.50;;;;;;;9.95;82.77;100851.03;5137357;27;20037;-65
2022/11/24 08:53:53;;;;;;;9.55;2.70;;;;;;;10.11;82.90;100844.19;5137339;27;20027;-65
2022/11/24 08:56:18;;;;;;;10.63;2.53;;;;;;;10.32;82.35;100851.50;5137208;27;20023;-65
2022/11/24 08:58:43;;;;;;;8.20;2.67;;;;;;;10.58;81.08;100858.00;5137113;27;20035;-65
2022/11/24 09:01:14;;;;;;;12.13;2.45;;;;;;;11.06;78.81;100869.03;5137029;27;20059;-65
2022/11/24 09:03:41;;;;;;;9.55;2.40;;;;;;;11.35;77.23;100866.63;5137147;27;20034;-65
2022/11/24 09:06:07;;;;;;;11.43;2.70;;;;;;;11.60;75.80;100875.63;5137271;27;20081;-65
2022/11/24 09:08:34;;;;;;;8.00;2.60;;;;;;;11.74;74.78;100874.84;5137205;27;20033;-66
2022/11/24 09:11:01;;;;;;;8.80;2.55;;;;;;;11.87;74.01;100877.63;5136880;27;20066;-65
2022/11/24 09:13:26;;;;;;;13.23;2.95;;;;;;;12.13;73.75;100883.94;5136979;27;20067;-65
2022/11/24 09:15:52;;;;;;;9.52;2.50;;;;;;;12.32;72.99;100878.72;5137004;27;20023;-65
2022/11/24 09:18:17;;;;;;;8.60;2.45;;;;;;;12.50;71.65;100884.06;5136761;27;20023;-65
2022/11/24 09:20:42;;;;;;;9.18;2.47;;;;;;;12.53;71.02;100882.31;5136972;27;20468;-65
2022/11/24 09:23:08;;;;;;;12.43;2.72;;;;;;;12.64;70.96;100881.50;5136766;27;20027;-65
2022/11/24 09:25:33;;;;;;;7.78;2.55;;;;;;;12.78;70.48;100891.25;5136633;27;20031;-65
2022/11/24 09:27:58;;;;;;;13.00;2.70;;;;;;;12.91;70.17;100901.88;5136585;27;20054;-65
2022/11/24 09:30:24;;;;;;;11.27;2.90;;;;;;;12.83;69.67;100904.50;5136766;27;20027;-65
2022/11/24 09:32:50;;;;;;;11.93;2.67;;;;;;;12.97;69.86;100896.56;5135259;27;20019;-65
2022/11/24 09:35:15;;;;;;;11.65;2.80;;;;;;;12.78;69.38;100906.28;5136290;27;20391;-65
2022/11/24 09:37:43;;;;;;;9.68;2.83;;;;;;;12.59;71.34;100913.28;5136253;27;20026;-65
2022/11/24 09:40:13;;;;;;;11.35;3.05;;;;;;;12.52;72.19;100912.38;5135017;27;20062;-65
2022/11/24 09:42:38;;;;;;;15.52;3.25;;;;;;;12.36;70.82;100910.53;5135625;27;20074;-65
2022/11/24 09:45:18;;;;;;;12.43;2.78;;;;;;;12.39;72.70;100909.66;5136085;27;20027;-65
2022/11/24 09:47:50;;;;;;;12.38;3.00;;;;;;;12.39;72.74;100921.16;5136243;27;20027;-65
2022/11/24 09:50:20;;;;;;;10.65;3.10;;;;;;;12.39;71.84;100923.81;5135939;27;20045;-65
2022/11/24 09:53:05;;;;;;;12.68;2.97;;;;;;;12.24;72.07;100929.91;5136491;27;20106;-65
2022/11/24 09:55:45;;;;;;;11.13;2.95;;;;;;;12.31;72.05;100943.19;5134905;27;20114;-66
2022/11/24 09:58:16;;;;;;;15.07;2.95;;;;;;;12.36;72.70;100936.16;5134799;27;20038;-65
2022/11/24 10:00:42;;;;;;;13.25;2.90;;;;;;;12.33;72.04;100952.91;5136030;27;20139;-65
2022/11/24 10:03:15;;;;;;;13.35;3.10;;;;;;;12.35;72.41;100953.81;5135866;27;20464;-66
2022/11/24 10:05:42;;;;;;;16.02;3.47;;;;;;;12.34;71.86;100949.41;5135846;27;20162;-65
2022/11/24 10:08:22;;;;;;;10.80;2.92;;;;;;;12.34;72.06;100941.44;5135733;27;20051;-65
2022/11/24 10:10:57;;;;;;;12.77;3.45;;;;;;;12.42;72.81;100946.75;5135729;27;20023;-65
2022/11/24 10:13:45;;;;;;;13.75;3.40;;;;;;;12.61;71.41;100959.22;5135567;27;20059;-65
2022/11/24 10:16:34;;;;;;;13.85;3.58;;;;;;;12.62;70.89;100960.13;5135676;27;20106;-66
2022/11/24 10:18:59;;;;;;;10.45;3.20;;;;;;;12.59;70.63;100970.69;5135634;27;20054;-65
2022/11/24 10:22:04;;;;;;;14.30;3.08;;;;;;;12.87;72.11;100969.06;5135529;27;20038;-65
2022/11/24 10:24:54;;;;;;;10.80;2.92;;;;;;;12.98;70.92;100972.63;5131114;27;20031;-65
2022/11/24 10:27:32;;;;;;;18.35;3.50;;;;;;;12.89;70.30;100975.22;5135512;27;20107;-65
2022/11/24 10:29:59;;;;;;;18.10;4.07;;;;;;;12.92;69.74;100973.47;5135453;27;20026;-65
2022/11/24 10:32:31;;;;;;;12.15;2.97;;;;;;;13.04;70.19;100985.91;5135028;27;20027;-65
2022/11/24 10:35:05;;;;;;;12.10;3.13;;;;;;;13.06;69.46;100994.78;5134020;27;20094;-65
2022/11/24 10:37:42;;;;;;;13.65;3.15;;;;;;;13.05;69.61;100990.31;5134460;27;20031;-65
2022/11/24 10:40:24;;;;;;;15.23;3.20;;;;;;;13.06;68.93;100988.56;5135015;27;20102;-65
2022/11/24 10:42:51;;;;;;;11.45;3.05;;;;;;;13.20;69.06;100993.03;5135240;27;20027;-65
2022/11/24 10:45:21;;;;;;;15.25;3.42;;;;;;;13.34;68.35;100990.44;5135211;27;20061;-65
2022/11/24 10:47:47;;;;;;;11.38;3.15;;;;;;;13.47;69.14;100992.22;5134999;27;20023;-65
2022/11/24 10:50:23;;;;;;;10.95;2.88;;;;;;;13.36;67.79;100991.34;5133447;27;20043;-65
2022/11/24 10:53:07;;;;;;;11.30;3.58;;;;;;;13.33;68.36;100985.13;5135249;27;20094;-65
2022/11/24 10:55:57;;;;;;;13.55;3.15;;;;;;;13.20;68.94;100985.06;5135144;27;20027;-65
2022/11/24 10:58:24;;;;;;;11.88;3.03;;;;;;;13.19;68.29;100985.03;5134885;27;20027;-65
2022/11/24 11:00:50;;;;;;;14.13;3.10;;;;;;;13.40;69.99;100984.22;5134826;27;20030;-65
2022/11/24 11:03:27;;;;;;;14.63;3.33;;;;;;;13.67;68.42;100991.38;5134787;27;20027;-64
2022/11/24 11:06:14;;;;;;;15.52;3.38;;;;;;;13.83;67.86;100989.56;5134951;27;20042;-65
2022/11/24 11:08:39;;;;;;;10.93;2.95;;;;;;;13.85;66.46;100986.03;5134699;27;20027;-65
2022/11/24 11:11:16;;;;;;;13.35;3.25;;;;;;;13.98;67.21;100973.63;5134545;27;20041;-65
2022/11/24 11:14:06;;;;;;;13.98;3.42;;;;;;;14.24;66.10;100977.13;5134412;27;20035;-65
2022/11/24 11:16:49;;;;;;;10.52;2.88;;;;;;;14.23;65.78;100980.69;5134568;27;20047;-64
2022/11/24 11:19:38;;;;;;;17.55;3.25;;;;;;;14.20;66.45;100970.03;5134471;27;20586;-65
2022/11/24 11:22:14;;;;;;;13.15;3.20;;;;;;;14.13;64.89;100980.69;5133144;27;20509;-65
2022/11/24 11:24:42;;;;;;;12.85;3.15;;;;;;;14.34;65.48;100964.69;5134716;27;20019;-64
2022/11/24 11:27:23;;;;;;;12.80;3.35;;;;;;;14.51;65.83;100972.66;5133069;27;20023;-64
2022/11/24 11:29:49;;;;;;;16.00;3.38;;;;;;;14.44;63.52;100968.22;5134473;27;20031;-64